Time;durP1;ratioP1;P1;durP2;ratioP2;P2;SDS_P1;SDS_P2;PMS_P1;PMS_P2;Temp;Humidity;BMP_temperature;BMP_pressure;BME280_temperature;BME280_humidity;BME280_pressure;Samples;Min_cycle;Max_cycle;Signal;HPM_P1;HPM_P2
2021/01/12 00:02:22;;;;;;;17.05;3.13;;;7.90;99.90;;;;;;4853717;29;20034;-77
2021/01/12 00:04:48;;;;;;;15.18;3.67;;;8.00;99.90;;;;;;4859945;29;20047;-76
2021/01/12 00:07:18;;;;;;;9.70;2.95;;;8.00;99.90;;;;;;4850761;29;20075;-76
2021/01/12 00:09:43;;;;;;;10.40;3.00;;;7.90;99.90;;;;;;4860049;29;20049;-76
2021/01/12 00:12:09;;;;;;;8.73;2.88;;;8.00;99.90;;;;;;4839731;29;20372;-75
2021/01/12 00:14:35;;;;;;;11.77;3.20;;;8.00;99.90;;;;;;4856027;29;20395;-76
2021/01/12 00:17:03;;;;;;;7.35;3.10;;;7.90;99.90;;;;;;4850864;29;20036;-77
2021/01/12 00:19:30;;;;;;;6.68;2.63;;;7.90;99.90;;;;;;4846174;29;20046;-77
2021/01/12 00:21:56;;;;;;;11.25;3.00;;;7.90;99.90;;;;;;4842668;29;20428;-76
2021/01/12 00:24:23;;;;;;;16.33;2.85;;;7.90;99.90;;;;;;4842401;29;20086;-76
2021/01/12 00:26:50;;;;;;;9.05;3.45;;;7.90;99.90;;;;;;4856709;29;20084;-78
2021/01/12 00:29:16;;;;;;;10.73;3.28;;;7.80;99.90;;;;;;4842687;29;20423;-75
2021/01/12 00:31:42;;;;;;;10.63;3.15;;;7.80;99.90;;;;;;4849456;29;20104;-75
2021/01/12 00:34:09;;;;;;;6.88;2.67;;;7.80;99.90;;;;;;4835851;29;20054;-75
2021/01/12 00:36:46;;;;;;;9.70;3.65;;;7.80;99.90;;;;;;4844685;29;20033;-76
2021/01/12 00:39:12;;;;;;;16.35;3.38;;;7.80;99.90;;;;;;4839573;29;20033;-75
2021/01/12 00:41:38;;;;;;;8.27;3.13;;;7.80;99.90;;;;;;4840681;29;20129;-75
2021/01/12 00:44:05;;;;;;;6.32;2.80;;;7.80;99.90;;;;;;4856321;29;20117;-76
2021/01/12 00:46:33;;;;;;;8.50;3.10;;;7.70;99.90;;;;;;4841094;29;20504;-77
2021/01/12 00:48:59;;;;;;;9.18;3.58;;;7.70;99.90;;;;;;4853002;29;20034;-76
2021/01/12 00:51:36;;;;;;;10.52;3.38;;;7.70;99.90;;;;;;4851948;29;20030;-76
2021/01/12 00:54:09;;;;;;;4.90;2.88;;;7.80;99.90;;;;;;4856186;29;20026;-77
2021/01/12 00:56:35;;;;;;;15.13;4.45;;;7.80;99.90;;;;;;4835253;29;20038;-75
2021/01/12 00:59:04;;;;;;;8.05;2.65;;;7.80;99.90;;;;;;4850459;29;20114;-76
2021/01/12 01:01:30;;;;;;;8.70;2.60;;;7.80;99.90;;;;;;4857485;29;20040;-77
2021/01/12 01:03:59;;;;;;;7.43;2.50;;;7.80;99.90;;;;;;4842758;29;20026;-77
2021/01/12 01:06:25;;;;;;;9.95;3.25;;;7.80;99.90;;;;;;4852455;29;20030;-75
2021/01/12 01:08:53;;;;;;;9.95;3.45;;;7.80;99.90;;;;;;4857634;29;20098;-75
2021/01/12 01:11:19;;;;;;;5.78;3.08;;;7.80;99.90;;;;;;4841043;29;20113;-77
2021/01/12 01:13:47;;;;;;;11.48;3.80;;;7.80;99.90;;;;;;4856632;29;20037;-77
2021/01/12 01:16:13;;;;;;;10.43;3.33;;;7.80;99.90;;;;;;4853855;29;20063;-76
2021/01/12 01:18:39;;;;;;;11.45;3.75;;;7.80;99.90;;;;;;4856222;29;20042;-78
2021/01/12 01:21:05;;;;;;;8.32;3.15;;;7.80;99.90;;;;;;4856671;29;20046;-77
2021/01/12 01:23:31;;;;;;;7.18;2.85;;;7.80;99.90;;;;;;4855869;29;20038;-78
2021/01/12 01:25:58;;;;;;;10.60;3.20;;;7.80;99.90;;;;;;4844632;29;20384;-76
2021/01/12 01:28:25;;;;;;;11.52;3.20;;;7.80;99.90;;;;;;4859128;29;20050;-76
2021/01/12 01:30:53;;;;;;;16.73;4.43;;;7.80;99.90;;;;;;4856363;29;20018;-76
2021/01/12 01:33:20;;;;;;;10.98;3.88;;;7.80;99.90;;;;;;4859330;29;20113;-74
2021/01/12 01:35:47;;;;;;;10.27;3.08;;;7.80;99.90;;;;;;4854351;29;20094;-77
2021/01/12 01:38:12;;;;;;;10.55;4.40;;;7.80;99.90;;;;;;4859073;29;20072;-76
2021/01/12 01:40:38;;;;;;;13.13;2.95;;;7.80;99.90;;;;;;4858951;29;20058;-76
2021/01/12 01:43:04;;;;;;;9.45;3.05;;;7.80;99.90;;;;;;4845237;29;20519;-76
2021/01/12 01:45:30;;;;;;;12.48;3.55;;;7.90;99.90;;;;;;4847013;29;20053;-76
2021/01/12 01:47:56;;;;;;;10.25;3.88;;;7.90;99.90;;;;;;4848048;29;20057;-75
2021/01/12 01:50:23;;;;;;;14.57;3.55;;;7.90;99.90;;;;;;4857177;29;20437;-77
2021/01/12 01:52:51;;;;;;;13.03;3.63;;;7.90;99.90;;;;;;4862152;29;20029;-76
2021/01/12 01:55:18;;;;;;;13.77;3.80;;;7.90;99.90;;;;;;4849127;29;20364;-74
2021/01/12 01:57:45;;;;;;;11.70;4.72;;;7.90;99.90;;;;;;4848519;29;20034;-77
2021/01/12 02:00:15;;;;;;;13.60;4.22;;;8.00;99.90;;;;;;4865109;29;20037;-75
2021/01/12 02:03:08;;;;;;;16.58;3.88;;;8.00;99.90;;;;;;4848383;29;20034;-75
2021/01/12 02:05:39;;;;;;;15.52;3.75;;;8.00;99.90;;;;;;4843645;29;20348;-75
2021/01/12 02:08:35;;;;;;;16.45;5.40;;;8.10;99.90;;;;;;4846118;29;20032;-74
2021/01/12 02:11:03;;;;;;;11.77;4.57;;;8.00;99.90;;;;;;4824570;29;20039;-77
2021/01/12 02:13:31;;;;;;;;;;;8.00;99.90;;;;;;4859146;29;20062;-76
2021/01/12 02:16:00;;;;;;;12.40;3.80;;;8.00;99.90;;;;;;4844558;29;19958;-76
2021/01/12 02:18:31;;;;;;;16.80;4.50;;;8.00;99.90;;;;;;4844378;29;20037;-76
2021/01/12 02:20:59;;;;;;;15.07;5.25;;;8.10;99.90;;;;;;4859572;29;20046;-77
2021/01/12 02:23:27;;;;;;;;;;;8.10;99.90;;;;;;4859386;29;20042;-77
2021/01/12 02:25:55;;;;;;;23.88;3.92;;;8.20;99.90;;;;;;4843043;29;20296;-77
2021/01/12 02:28:22;;;;;;;9.60;4.43;;;8.20;99.90;;;;;;4858860;29;20045;-78
2021/01/12 02:30:48;;;;;;;11.90;3.97;;;8.20;99.90;;;;;;4823882;29;20137;-77
2021/01/12 02:33:15;;;;;;;10.70;3.92;;;8.30;99.90;;;;;;4823691;29;20069;-76
2021/01/12 02:35:44;;;;;;;19.02;4.10;;;8.30;99.90;;;;;;4823288;29;20535;-78
2021/01/12 02:38:11;;;;;;;15.63;3.88;;;8.30;99.90;;;;;;4823014;29;20106;-77
2021/01/12 02:40:37;;;;;;;15.27;3.60;;;8.30;99.90;;;;;;4823732;29;20460;-77
2021/01/12 02:43:03;;;;;;;16.50;3.63;;;8.30;99.90;;;;;;4823721;29;20058;-78
2021/01/12 02:45:30;;;;;;;18.48;4.40;;;8.30;99.90;;;;;;4823588;29;20149;-76
2021/01/12 02:47:57;;;;;;;15.67;3.90;;;8.30;99.90;;;;;;4825013;29;20411;-77
2021/01/12 02:50:23;;;;;;;18.58;3.08;;;8.30;99.90;;;;;;4823236;29;20295;-77
2021/01/12 02:52:48;;;;;;;11.60;3.95;;;8.30;99.90;;;;;;4800390;29;20022;-78
2021/01/12 02:55:14;;;;;;;12.55;3.75;;;8.30;99.90;;;;;;4823480;29;20090;-76
2021/01/12 02:57:41;;;;;;;15.35;4.55;;;8.30;99.90;;;;;;4810802;29;20416;-76
2021/01/12 03:00:09;;;;;;;11.88;3.67;;;8.30;99.90;;;;;;4808354;29;20038;-77
2021/01/12 03:02:35;;;;;;;10.82;4.55;;;8.40;99.90;;;;;;4849275;29;20453;-76
2021/01/12 03:05:01;;;;;;;10.15;3.00;;;8.30;99.90;;;;;;4860411;29;20491;-76
2021/01/12 03:07:27;;;;;;;17.45;3.88;;;8.40;99.90;;;;;;4857818;29;20110;-77
2021/01/12 03:09:53;;;;;;;9.90;3.58;;;8.40;99.90;;;;;;4842239;29;20046;-77
2021/01/12 03:12:19;;;;;;;7.63;3.08;;;8.50;99.90;;;;;;4857789;29;20365;-76
2021/01/12 03:14:45;;;;;;;11.35;2.70;;;8.50;99.90;;;;;;4842206;29;20061;-77
2021/01/12 03:17:13;;;;;;;16.83;4.38;;;8.50;99.90;;;;;;4843223;29;20026;-77
2021/01/12 03:19:39;;;;;;;10.13;2.58;;;8.50;99.90;;;;;;4843414;29;20042;-77
2021/01/12 03:22:04;;;;;;;14.18;2.97;;;8.40;99.90;;;;;;4857599;29;20041;-78
2021/01/12 03:24:30;;;;;;;16.75;3.65;;;8.50;99.90;;;;;;4857432;29;20028;-78
2021/01/12 03:26:56;;;;;;;11.73;3.30;;;8.50;99.90;;;;;;4857492;29;20026;-77
2021/01/12 03:29:22;;;;;;;16.13;3.08;;;8.50;99.90;;;;;;4857634;29;20022;-76
2021/01/12 03:31:48;;;;;;;9.95;3.65;;;8.50;99.90;;;;;;4857132;29;20085;-77
2021/01/12 03:34:14;;;;;;;9.60;3.42;;;8.50;99.90;;;;;;4857564;29;20037;-77
2021/01/12 03:36:39;;;;;;;11.20;4.25;;;8.50;99.90;;;;;;4857640;29;20018;-76
2021/01/12 03:39:05;;;;;;;15.02;3.97;;;8.50;99.90;;;;;;4841952;29;20026;-77
2021/01/12 03:41:34;;;;;;;9.25;3.53;;;8.50;99.90;;;;;;4843129;29;20026;-78
2021/01/12 03:44:00;;;;;;;11.43;3.90;;;8.50;99.90;;;;;;4857516;29;20045;-77
2021/01/12 03:46:26;;;;;;;8.55;2.97;;;8.50;99.90;;;;;;4843732;29;20444;-79
2021/01/12 03:48:53;;;;;;;10.73;4.10;;;8.50;99.90;;;;;;4838144;29;20030;-77
2021/01/12 03:51:20;;;;;;;11.18;4.05;;;8.60;99.90;;;;;;4819041;29;20042;-78
2021/01/12 03:53:46;;;;;;;5.18;3.08;;;8.50;99.90;;;;;;4824958;29;20475;-77
2021/01/12 03:56:15;;;;;;;12.27;5.10;;;8.50;99.90;;;;;;4838342;29;20068;-77
2021/01/12 03:58:42;;;;;;;7.90;3.50;;;8.50;99.90;;;;;;4824210;29;20125;-78
2021/01/12 04:01:09;;;;;;;10.27;3.78;;;8.50;99.90;;;;;;4838068;29;20392;-78
2021/01/12 04:03:35;;;;;;;14.02;3.03;;;8.50;99.90;;;;;;4824067;29;20042;-78
2021/01/12 04:06:03;;;;;;;15.73;3.58;;;8.50;99.90;;;;;;4823454;29;20372;-78
2021/01/12 04:08:31;;;;;;;6.93;3.10;;;8.50;99.90;;;;;;4823115;29;20045;-77
2021/01/12 04:10:57;;;;;;;7.75;2.47;;;8.60;99.90;;;;;;4823706;29;20038;-77
2021/01/12 04:13:23;;;;;;;8.15;2.75;;;8.60;99.90;;;;;;4838425;29;20025;-78
2021/01/12 04:15:49;;;;;;;11.13;2.25;;;8.50;99.90;;;;;;4824713;29;20391;-78
2021/01/12 04:18:15;;;;;;;12.48;3.42;;;8.50;99.90;;;;;;4823169;29;20035;-78
2021/01/12 04:20:41;;;;;;;6.80;1.92;;;8.50;99.90;;;;;;4838634;29;20037;-78
2021/01/12 04:23:07;;;;;;;15.73;2.63;;;8.60;99.90;;;;;;4837831;29;20045;-78
2021/01/12 04:25:35;;;;;;;10.55;2.92;;;8.70;99.90;;;;;;4838300;29;20027;-79
2021/01/12 04:28:02;;;;;;;12.70;3.22;;;8.60;99.90;;;;;;4833605;29;20500;-78
2021/01/12 04:30:27;;;;;;;11.77;1.92;;;8.60;99.90;;;;;;4838416;29;20484;-79
2021/01/12 04:32:53;;;;;;;8.60;2.65;;;8.60;99.90;;;;;;4824934;29;20034;-78
2021/01/12 04:35:20;;;;;;;10.63;1.65;;;8.60;99.90;;;;;;4840029;29;20041;-79
2021/01/12 04:37:46;;;;;;;10.98;1.92;;;8.60;99.90;;;;;;4834227;29;20120;-78
2021/01/12 04:40:13;;;;;;;12.05;2.30;;;8.60;99.90;;;;;;4824810;29;20036;-77
2021/01/12 04:42:42;;;;;;;10.85;1.85;;;8.70;99.90;;;;;;4835681;29;20081;-77
2021/01/12 04:45:08;;;;;;;8.55;1.70;;;8.70;99.90;;;;;;4824273;29;20446;-77
2021/01/12 04:47:35;;;;;;;3.60;2.38;;;8.70;99.90;;;;;;4840444;29;20495;-77
2021/01/12 04:50:06;;;;;;;9.57;1.85;;;8.70;99.90;;;;;;4840200;29;20042;-78
2021/01/12 04:52:49;;;;;;;8.15;1.63;;;8.70;99.90;;;;;;4839796;29;20850;-78
2021/01/12 04:55:17;;;;;;;11.20;1.77;;;8.70;99.90;;;;;;4840374;29;20110;-78
2021/01/12 04:57:45;;;;;;;10.63;1.83;;;8.70;99.90;;;;;;4827834;29;20030;-77
2021/01/12 05:00:29;;;;;;;3.95;1.55;;;8.80;99.90;;;;;;4826883;29;20388;-78
2021/01/12 05:03:02;;;;;;;4.65;1.30;;;8.70;99.90;;;;;;4826639;29;20050;-77
2021/01/12 05:05:39;;;;;;;11.50;1.98;;;8.70;99.90;;;;;;4828550;29;20098;-78
2021/01/12 05:08:15;;;;;;;12.60;1.63;;;8.70;99.90;;;;;;4841292;29;20106;-77
2021/01/12 05:10:41;;;;;;;6.00;1.48;;;8.70;99.90;;;;;;4828791;29;20467;-79
2021/01/12 05:13:12;;;;;;;9.77;1.65;;;8.70;99.90;;;;;;4825489;29;20041;-76
2021/01/12 05:15:50;;;;;;;7.07;2.05;;;8.70;99.90;;;;;;4840973;29;20427;-77
2021/01/12 05:18:18;;;;;;;;;;;8.70;99.90;;;;;;4822272;29;20046;-77
2021/01/12 05:20:48;;;;;;;11.52;2.10;;;8.60;99.90;;;;;;4843538;29;19912;-76
2021/01/12 05:23:22;;;;;;;9.73;2.78;;;8.60;99.90;;;;;;4812945;29;20046;-77
2021/01/12 05:25:51;;;;;;;8.60;1.80;;;8.50;99.90;;;;;;4844552;29;20503;-78
2021/01/12 05:28:18;;;;;;;6.10;1.60;;;8.40;99.90;;;;;;4864009;29;20458;-77
2021/01/12 05:30:47;;;;;;;11.27;1.70;;;8.40;99.90;;;;;;4862502;29;20031;-76
2021/01/12 05:33:20;;;;;;;13.77;2.00;;;8.50;99.90;;;;;;4863042;29;20021;-76
2021/01/12 05:35:49;;;;;;;15.75;2.20;;;8.40;99.90;;;;;;4847280;29;20060;-76
2021/01/12 05:38:28;;;;;;;9.98;1.65;;;8.40;99.90;;;;;;4863869;29;20053;-76
2021/01/12 05:40:56;;;;;;;6.72;1.15;;;8.30;99.90;;;;;;4871695;29;20029;-78
2021/01/12 05:43:31;;;;;;;14.82;1.38;;;8.30;99.90;;;;;;4863588;29;20459;-76
2021/01/12 05:45:57;;;;;;;10.13;1.40;;;8.20;99.90;;;;;;4863444;29;20432;-78
2021/01/12 05:48:25;;;;;;;7.40;1.85;;;8.20;99.90;;;;;;4863792;29;20034;-75
2021/01/12 05:50:56;;;;;;;;;;;8.20;99.90;;;;;;4862295;29;20045;-75
2021/01/12 05:53:32;;;;;;;14.38;1.65;;;8.20;99.90;;;;;;4839561;29;20310;-75
2021/01/12 05:56:02;;;;;;;15.43;1.70;;;8.20;99.90;;;;;;4844943;29;20057;-77
2021/01/12 05:58:32;;;;;;;7.50;2.28;;;8.10;99.90;;;;;;4846951;29;20033;-77
2021/01/12 06:01:02;;;;;;;6.80;1.23;;;8.10;99.90;;;;;;4868556;29;20554;-76
2021/01/12 06:03:34;;;;;;;9.00;1.35;;;8.00;99.90;;;;;;4857767;29;20061;-76
2021/01/12 06:06:00;;;;;;;10.43;2.00;;;8.10;99.90;;;;;;4861696;29;20033;-76
2021/01/12 06:08:27;;;;;;;8.65;1.50;;;8.10;99.90;;;;;;4862399;29;20064;-77
2021/01/12 06:10:53;;;;;;;14.02;2.58;;;8.00;99.90;;;;;;4861416;29;20026;-78
2021/01/12 06:13:20;;;;;;;13.52;1.90;;;8.00;99.90;;;;;;4856921;29;20018;-78
2021/01/12 06:15:47;;;;;;;23.42;3.45;;;8.00;99.90;;;;;;4861311;29;20036;-76
2021/01/12 06:18:17;;;;;;;12.35;2.08;;;8.00;99.90;;;;;;4841411;29;20124;-76
2021/01/12 06:20:55;;;;;;;2.70;1.02;;;8.00;99.90;;;;;;4860972;29;20029;-77
2021/01/12 06:23:48;;;;;;;10.30;1.25;;;8.00;99.90;;;;;;4859444;29;20033;-76
2021/01/12 06:26:15;;;;;;;3.70;1.10;;;8.10;99.90;;;;;;4862184;29;20109;-76
2021/01/12 06:28:42;;;;;;;7.30;1.50;;;8.00;99.90;;;;;;4861572;29;20034;-76
2021/01/12 06:31:11;;;;;;;10.73;1.57;;;8.00;99.90;;;;;;4861494;29;20025;-76
2021/01/12 06:33:38;;;;;;;9.40;1.40;;;8.00;99.90;;;;;;4861593;29;20643;-77
2021/01/12 06:36:06;;;;;;;8.45;2.13;;;7.90;99.90;;;;;;4858293;29;20022;-77
2021/01/12 06:38:38;;;;;;;12.50;1.60;;;7.90;99.90;;;;;;4845405;29;20026;-76
2021/01/12 06:41:08;;;;;;;12.63;2.47;;;7.90;99.90;;;;;;4857904;29;20034;-75
2021/01/12 06:43:35;;;;;;;11.45;1.20;;;7.90;99.90;;;;;;4861191;29;20082;-75
2021/01/12 06:46:01;;;;;;;6.93;1.38;;;7.90;99.90;;;;;;4860533;29;20037;-75
2021/01/12 06:48:33;;;;;;;10.30;2.33;;;7.90;99.90;;;;;;4861042;29;20038;-75
2021/01/12 06:51:00;;;;;;;7.05;1.33;;;7.80;99.90;;;;;;4841180;29;20045;-76
2021/01/12 06:53:28;;;;;;;14.20;1.48;;;7.80;99.90;;;;;;4852970;29;20034;-76
2021/01/12 06:56:07;;;;;;;9.75;1.45;;;7.80;99.90;;;;;;4859201;29;20029;-75
2021/01/12 06:58:32;;;;;;;9.18;1.60;;;7.80;99.90;;;;;;4861902;29;20029;-76
2021/01/12 07:01:00;;;;;;;8.60;2.15;;;7.80;99.90;;;;;;4870624;29;20563;-77
2021/01/12 07:03:32;;;;;;;9.60;1.05;;;7.80;99.90;;;;;;4861524;29;20391;-77
2021/01/12 07:06:02;;;;;;;9.30;1.15;;;7.80;99.90;;;;;;4848526;29;20037;-78
2021/01/12 07:08:29;;;;;;;6.63;0.90;;;7.80;99.90;;;;;;4861295;29;20121;-76
2021/01/12 07:11:00;;;;;;;10.40;1.90;;;7.80;99.90;;;;;;4859714;29;20410;-78
2021/01/12 07:13:35;;;;;;;9.77;1.63;;;7.80;99.90;;;;;;4857711;29;20034;-77
2021/01/12 07:16:01;;;;;;;11.68;1.50;;;7.80;99.90;;;;;;4844764;29;20025;-78
2021/01/12 07:18:26;;;;;;;6.20;0.95;;;7.80;99.90;;;;;;4861431;29;20499;-78
2021/01/12 07:20:52;;;;;;;7.82;1.00;;;7.70;99.90;;;;;;4862391;29;20100;-78
2021/01/12 07:23:18;;;;;;;10.65;1.88;;;7.70;99.90;;;;;;4860799;29;20022;-76
2021/01/12 07:25:46;;;;;;;8.45;1.13;;;7.80;99.90;;;;;;4859552;29;20090;-77
2021/01/12 07:28:14;;;;;;;7.90;1.10;;;7.70;99.90;;;;;;4860261;29;20057;-75
2021/01/12 07:30:59;;;;;;;4.60;0.68;;;7.60;99.90;;;;;;4861485;29;20029;-76
2021/01/12 07:33:30;;;;;;;7.13;0.93;;;7.70;99.90;;;;;;4857341;29;20041;-75
2021/01/12 07:35:58;;;;;;;5.82;1.25;;;7.70;99.90;;;;;;4859801;29;20017;-76
2021/01/12 07:38:26;;;;;;;6.47;1.25;;;7.70;99.90;;;;;;4844589;29;20029;-76
2021/01/12 07:40:53;;;;;;;6.20;1.90;;;7.60;99.90;;;;;;4859461;29;20466;-77
2021/01/12 07:43:21;;;;;;;15.40;2.30;;;7.60;99.90;;;;;;4859332;29;20112;-75
2021/01/12 07:45:47;;;;;;;8.88;2.60;;;7.60;99.90;;;;;;4851353;29;20136;-77
2021/01/12 07:48:14;;;;;;;6.63;1.50;;;7.50;99.90;;;;;;4857483;29;20087;-76
2021/01/12 07:50:43;;;;;;;7.93;1.98;;;7.60;99.90;;;;;;4856606;29;20040;-76
2021/01/12 07:53:09;;;;;;;4.10;1.90;;;7.60;99.90;;;;;;4839682;29;20029;-75
2021/01/12 07:55:39;;;;;;;8.05;2.20;;;7.60;99.90;;;;;;4845991;29;20041;-77
2021/01/12 07:58:05;;;;;;;6.07;2.00;;;7.50;99.90;;;;;;4849574;29;20033;-76
2021/01/12 08:00:32;;;;;;;7.15;1.70;;;7.50;99.90;;;;;;4862103;29;20041;-76
2021/01/12 08:02:59;;;;;;;1.58;1.25;;;7.40;99.90;;;;;;4860002;29;20026;-77
2021/01/12 08:05:26;;;;;;;3.67;1.38;;;7.30;99.90;;;;;;4841568;29;20030;-75
2021/01/12 08:08:05;;;;;;;4.10;0.82;;;7.20;99.90;;;;;;4840602;29;20030;-79
2021/01/12 08:10:39;;;;;;;2.10;1.30;;;7.20;99.90;;;;;;4839449;29;20034;-76
2021/01/12 08:13:13;;;;;;;4.43;1.70;;;7.30;99.90;;;;;;4857078;29;20117;-78
2021/01/12 08:15:43;;;;;;;3.70;2.20;;;7.20;99.90;;;;;;4843953;29;20061;-76
2021/01/12 08:18:17;;;;;;;5.68;1.70;;;7.10;99.90;;;;;;4840985;29;20030;-75
2021/01/12 08:20:44;;;;;;;1.75;1.60;;;7.10;99.90;;;;;;4839334;29;20037;-74
2021/01/12 08:23:11;;;;;;;1.73;1.15;;;7.10;99.90;;;;;;4856319;29;20034;-77
2021/01/12 08:25:37;;;;;;;4.53;1.25;;;7.10;99.90;;;;;;4841878;29;20514;-76
2021/01/12 08:28:04;;;;;;;1.25;1.10;;;7.00;99.90;;;;;;4856521;29;20044;-77
2021/01/12 08:30:31;;;;;;;11.27;1.75;;;6.90;99.90;;;;;;4841471;29;20057;-77
2021/01/12 08:33:18;;;;;;;3.40;1.35;;;6.80;99.90;;;;;;4841802;29;20483;-75
2021/01/12 08:35:58;;;;;;;1.50;1.35;;;6.80;99.90;;;;;;4840840;29;20029;-75
2021/01/12 08:38:27;;;;;;;1.77;1.00;;;6.70;99.90;;;;;;4856844;29;20495;-75
2021/01/12 08:40:55;;;;;;;1.83;1.15;;;6.80;99.90;;;;;;4856199;29;20030;-75
2021/01/12 08:43:27;;;;;;;5.72;1.10;;;6.80;99.90;;;;;;4843579;29;20124;-79
2021/01/12 08:45:57;;;;;;;3.83;1.05;;;6.70;99.90;;;;;;4827216;29;20074;-76
2021/01/12 08:48:26;;;;;;;1.15;0.77;;;6.80;99.90;;;;;;4840921;29;20484;-75
2021/01/12 08:50:52;;;;;;;8.88;1.83;;;6.80;99.90;;;;;;4842162;29;20105;-77
2021/01/12 08:53:18;;;;;;;10.68;1.73;;;6.90;99.90;;;;;;4855949;29;20086;-74
2021/01/12 08:55:45;;;;;;;3.53;1.20;;;6.90;99.90;;;;;;4841903;29;20030;-76
2021/01/12 08:58:11;;;;;;;5.72;1.52;;;7.00;99.90;;;;;;4826179;29;20025;-76
2021/01/12 09:00:38;;;;;;;7.32;1.67;;;7.00;99.90;;;;;;4856341;29;20040;-76
2021/01/12 09:03:05;;;;;;;8.02;1.70;;;7.00;99.90;;;;;;4826318;29;20036;-76
2021/01/12 09:05:36;;;;;;;3.90;1.63;;;7.00;99.90;;;;;;4841777;29;20082;-76
2021/01/12 09:08:15;;;;;;;8.25;1.25;;;7.00;99.90;;;;;;4839814;29;20448;-75
2021/01/12 09:10:41;;;;;;;1.88;0.82;;;7.00;99.90;;;;;;4836138;29;20111;-75
2021/01/12 09:13:08;;;;;;;2.88;1.13;;;6.90;99.90;;;;;;4850193;29;20133;-76
2021/01/12 09:15:39;;;;;;;7.82;1.13;;;7.00;99.90;;;;;;4860599;29;20392;-76
2021/01/12 09:18:17;;;;;;;5.32;1.00;;;6.90;99.90;;;;;;4843175;29;20146;-75
2021/01/12 09:20:43;;;;;;;;;;;6.90;99.90;;;;;;4842796;29;20117;-77
2021/01/12 09:23:11;;;;;;;4.80;1.38;;;6.90;99.90;;;;;;4855782;29;20032;-77
2021/01/12 09:25:39;;;;;;;7.15;0.70;;;7.00;99.90;;;;;;4842343;29;20041;-76
2021/01/12 09:28:10;;;;;;;3.38;0.63;;;7.00;99.90;;;;;;4849630;29;20170;-76
2021/01/12 09:30:36;;;;;;;4.28;0.70;;;6.90;99.90;;;;;;4855881;29;20022;-77
2021/01/12 09:33:02;;;;;;;6.75;0.70;;;6.90;99.90;;;;;;4858145;29;20038;-76
2021/01/12 09:35:28;;;;;;;7.00;0.88;;;6.80;99.90;;;;;;4843509;29;20093;-76
2021/01/12 09:38:00;;;;;;;12.57;2.28;;;6.80;99.90;;;;;;4856571;29;20065;-76
2021/01/12 09:40:27;;;;;;;5.75;1.23;;;6.70;99.90;;;;;;4857322;29;20048;-77
2021/01/12 09:42:53;;;;;;;2.50;1.00;;;6.70;99.90;;;;;;4857764;29;20037;-77
2021/01/12 09:45:19;;;;;;;5.78;0.90;;;6.70;99.90;;;;;;4854258;29;20038;-76
2021/01/12 09:47:46;;;;;;;6.82;0.98;;;6.80;99.90;;;;;;4856229;29;20042;-76
2021/01/12 09:50:12;;;;;;;12.30;1.27;;;6.70;99.90;;;;;;4858936;29;20038;-76
2021/01/12 09:52:38;;;;;;;5.15;0.70;;;6.70;99.90;;;;;;4845479;29;20029;-78
2021/01/12 09:55:05;;;;;;;6.50;2.25;;;6.70;99.90;;;;;;4862371;29;20376;-76
2021/01/12 09:57:33;;;;;;;5.70;0.75;;;6.70;99.90;;;;;;4844588;29;20022;-76
2021/01/12 09:59:59;;;;;;;4.35;0.90;;;6.70;99.90;;;;;;4844010;29;20037;-77
2021/01/12 10:02:25;;;;;;;6.00;1.63;;;6.70;99.90;;;;;;4844928;29;20062;-77
2021/01/12 10:04:51;;;;;;;8.05;0.93;;;6.70;99.90;;;;;;4844281;29;20034;-75
2021/01/12 10:07:16;;;;;;;12.30;1.20;;;6.70;99.90;;;;;;4859682;29;20046;-77
2021/01/12 10:09:42;;;;;;;3.17;0.43;;;6.70;99.90;;;;;;4859212;29;20033;-77
2021/01/12 10:12:08;;;;;;;4.55;0.50;;;6.70;99.90;;;;;;4830488;29;20395;-81
2021/01/12 10:14:34;;;;;;;7.78;0.82;;;6.40;99.90;;;;;;4844838;29;20494;-77
2021/01/12 10:17:02;;;;;;;2.28;0.20;;;6.30;99.90;;;;;;4843636;29;20026;-76
2021/01/12 10:19:28;;;;;;;8.93;0.40;;;6.10;99.90;;;;;;4843725;29;20162;-75
2021/01/12 10:21:54;;;;;;;3.70;0.47;;;6.00;99.90;;;;;;4858703;29;20509;-77
2021/01/12 10:24:22;;;;;;;12.30;0.68;;;6.10;99.90;;;;;;4858485;29;20042;-76
2021/01/12 10:26:51;;;;;;;;;;;6.10;99.90;;;;;;4858809;29;20086;-77
2021/01/12 10:29:17;;;;;;;2.80;0.40;;;6.10;99.90;;;;;;4843201;29;19920;-78
2021/01/12 10:31:43;;;;;;;3.88;1.08;;;6.10;99.90;;;;;;4845199;29;20030;-77
2021/01/12 10:34:10;;;;;;;10.82;1.27;;;6.10;99.90;;;;;;4843648;29;20072;-77
2021/01/12 10:36:36;;;;;;;4.00;1.20;;;6.10;99.90;;;;;;4858552;29;20045;-78
2021/01/12 10:39:02;;;;;;;16.20;1.50;;;6.10;99.90;;;;;;4844476;29;20475;-77
2021/01/12 10:41:28;;;;;;;9.32;0.75;;;6.20;99.90;;;;;;4858617;29;20030;-77
2021/01/12 10:43:55;;;;;;;9.13;0.60;;;6.30;99.90;;;;;;4858546;29;20037;-78
2021/01/12 10:46:21;;;;;;;6.50;0.60;;;6.30;99.90;;;;;;4855595;29;20579;-77
2021/01/12 10:48:49;;;;;;;9.52;0.85;;;6.50;99.90;;;;;;4855180;29;20125;-76
2021/01/12 10:51:18;;;;;;;17.10;0.75;;;6.50;99.90;;;;;;4858072;29;20038;-77
2021/01/12 10:53:44;;;;;;;12.30;1.13;;;6.70;99.90;;;;;;4858124;29;20499;-74
2021/01/12 10:56:17;;;;;;;2.08;0.80;;;6.70;99.90;;;;;;4844046;29;20115;-76
2021/01/12 10:58:43;;;;;;;2.97;0.95;;;6.50;99.90;;;;;;4856851;29;20109;-78
2021/01/12 11:01:14;;;;;;;2.80;1.17;;;6.30;99.90;;;;;;4844289;29;20126;-77
2021/01/12 11:03:40;;;;;;;4.55;1.15;;;6.30;99.90;;;;;;4844177;29;20117;-75
2021/01/12 11:06:05;;;;;;;9.10;0.90;;;6.30;99.90;;;;;;4858653;29;20112;-76
2021/01/12 11:08:31;;;;;;;3.78;0.63;;;6.30;99.90;;;;;;4844300;29;20045;-77
2021/01/12 11:10:57;;;;;;;2.15;0.80;;;6.30;99.90;;;;;;4842982;29;20030;-77
2021/01/12 11:13:23;;;;;;;12.90;0.82;;;6.30;99.90;;;;;;4844398;29;20058;-76
2021/01/12 11:15:48;;;;;;;9.73;0.82;;;6.30;99.90;;;;;;4845041;29;20022;-75
2021/01/12 11:18:15;;;;;;;13.88;1.42;;;6.40;99.90;;;;;;4843591;29;20030;-76
2021/01/12 11:20:42;;;;;;;14.02;0.90;;;6.40;99.90;;;;;;4844156;29;20389;-76
2021/01/12 11:23:07;;;;;;;4.22;0.80;;;6.40;99.90;;;;;;4839040;29;20102;-75
2021/01/12 11:25:33;;;;;;;3.35;0.93;;;6.40;99.90;;;;;;4825939;29;20348;-74
2021/01/12 11:27:59;;;;;;;13.77;1.58;;;6.30;99.90;;;;;;4839052;29;20402;-77
2021/01/12 11:30:25;;;;;;;8.23;1.70;;;6.40;99.90;;;;;;4843211;29;20535;-79
2021/01/12 11:32:52;;;;;;;9.80;0.95;;;6.50;99.90;;;;;;4827563;29;20070;-77
2021/01/12 11:35:18;;;;;;;2.60;0.87;;;6.60;99.90;;;;;;4842588;29;20038;-76
2021/01/12 11:37:46;;;;;;;3.63;1.40;;;6.70;99.90;;;;;;4843476;29;20740;-76
2021/01/12 11:40:12;;;;;;;10.63;1.20;;;6.80;99.90;;;;;;4857690;29;20030;-76
2021/01/12 11:42:38;;;;;;;8.70;0.95;;;6.90;99.90;;;;;;4842040;29;20042;-76
2021/01/12 11:45:05;;;;;;;3.35;0.50;;;7.00;99.90;;;;;;4857492;29;20033;-76
2021/01/12 11:47:30;;;;;;;4.97;0.57;;;7.00;99.90;;;;;;4861230;29;20046;-77
2021/01/12 11:49:56;;;;;;;7.28;0.63;;;6.80;99.90;;;;;;4843437;29;20030;-77
2021/01/12 11:52:22;;;;;;;12.23;1.05;;;6.70;99.90;;;;;;4840789;29;20155;-76
2021/01/12 11:54:48;;;;;;;5.78;0.70;;;6.70;99.90;;;;;;4859998;29;20030;-77
2021/01/12 11:57:13;;;;;;;3.50;0.60;;;6.80;99.90;;;;;;4857770;29;20030;-77
2021/01/12 11:59:39;;;;;;;8.60;0.95;;;6.60;99.90;;;;;;4858146;29;20034;-79
2021/01/12 12:02:05;;;;;;;8.00;0.55;;;6.50;99.90;;;;;;4844778;29;20116;-79
2021/01/12 12:04:31;;;;;;;6.82;0.70;;;6.50;99.90;;;;;;4842232;29;20036;-79
2021/01/12 12:07:00;;;;;;;12.43;1.30;;;6.50;99.90;;;;;;4857689;29;20044;-79
2021/01/12 12:09:27;;;;;;;2.90;0.95;;;6.50;99.90;;;;;;4843939;29;20030;-79
2021/01/12 12:11:53;;;;;;;1.95;0.50;;;6.40;99.90;;;;;;4844107;29;20040;-82
2021/01/12 12:14:19;;;;;;;5.10;0.80;;;6.50;99.90;;;;;;4828170;29;20390;-79
2021/01/12 12:16:47;;;;;;;7.45;0.95;;;6.60;99.90;;;;;;4857849;29;20040;-78
2021/01/12 12:19:18;;;;;;;5.63;0.93;;;6.70;99.90;;;;;;4843477;29;20074;-77
2021/01/12 12:21:54;;;;;;;4.15;1.88;;;6.60;99.90;;;;;;4838877;29;20026;-79
2021/01/12 12:24:22;;;;;;;4.18;0.88;;;6.60;99.90;;;;;;4856365;29;20483;-78
2021/01/12 12:26:52;;;;;;;3.25;0.82;;;6.60;99.90;;;;;;4864185;29;20025;-77
2021/01/12 12:29:19;;;;;;;8.30;0.75;;;6.60;99.90;;;;;;4843443;29;20113;-81
2021/01/12 12:31:47;;;;;;;4.90;0.75;;;6.60;99.90;;;;;;4858570;29;20030;-76
2021/01/12 12:34:13;;;;;;;;;;;6.70;99.90;;;;;;4846370;29;20025;-77
2021/01/12 12:36:39;;;;;;;7.63;0.90;;;6.80;99.90;;;;;;4846600;29;19920;-78
2021/01/12 12:39:05;;;;;;;7.13;0.60;;;6.80;99.90;;;;;;4842997;29;20495;-77
2021/01/12 12:41:33;;;;;;;2.38;0.70;;;6.70;99.90;;;;;;4842679;29;20402;-79
2021/01/12 12:44:00;;;;;;;7.88;0.77;;;6.70;99.90;;;;;;4854499;29;20050;-78
2021/01/12 12:46:26;;;;;;;9.30;0.85;;;6.70;99.90;;;;;;4859480;29;20053;-78
2021/01/12 12:48:52;;;;;;;9.25;0.90;;;6.70;99.90;;;;;;4826994;29;20034;-77
2021/01/12 12:51:18;;;;;;;9.57;0.82;;;6.70;99.90;;;;;;4852242;29;20030;-77
2021/01/12 12:53:45;;;;;;;6.90;1.02;;;6.70;99.90;;;;;;4844650;29;20475;-79
2021/01/12 12:56:13;;;;;;;9.68;0.80;;;6.80;99.90;;;;;;4854820;29;20034;-76
2021/01/12 12:58:40;;;;;;;5.18;1.02;;;6.80;99.90;;;;;;4857890;29;20036;-78
2021/01/12 13:01:07;;;;;;;5.28;0.65;;;6.80;99.90;;;;;;4844749;29;20068;-78